Denmark, Georgia
Current Conditions -  °F | °C
As of 5:15 PM on Tuesday 21 Oct 2014 (Local Time) from KCWV Reporting Station
Clear Clear  
Wind Chill: 79°   Ceiling: Unl
Heat Index: 79°   Visibility: 10mi
Dew Point: 52°   Wind: 6mph
Humidity: 39%   Direction: 270°W
Pressure: 29.89"   Gusts: NA
Location:  32.2794°N, 81.623°W
Report Text: KCWV 212115Z AUTO 27005KT 10SM CLR 26/11 A2989 RMK AO2
Loading
Personal Weather Stations






























Interactive Weather Map
Tropical Storm Tracking
New forecast layout! Learn more

10-Day Weather Forecast

Advertisements
Track Severe Weather on mobile